Time;durP1;ratioP1;P1;durP2;ratioP2;P2;SDS_P1;SDS_P2;PMS_P1;PMS_P2;Temp;Humidity;BMP_temperature;BMP_pressure;BME280_temperature;BME280_humidity;BME280_pressure;Samples;Min_cycle;Max_cycle;Signal;HPM_P1;HPM_P2
2024/01/10 00:02:22;;;;;;;;;;;-6.50;99.90;;;;;;4915456;29;20415;-89
2024/01/10 00:04:47;;;;;;;;;;;-6.50;99.90;;;;;;4939331;29;20056;-89
2024/01/10 00:07:13;;;;;;;;;;;-6.50;99.90;;;;;;4937935;29;19914;-89
2024/01/10 00:09:39;;;;;;;;;;;-6.50;99.90;;;;;;4938112;29;19911;-89
2024/01/10 00:12:04;;;;;;;;;;;-6.50;99.90;;;;;;4938232;29;20073;-89
2024/01/10 00:14:30;;;;;;;;;;;-6.50;99.90;;;;;;4940952;28;19923;-89
2024/01/10 00:16:56;;;;;;;;;;;-6.50;99.90;;;;;;4939431;29;19911;-88
2024/01/10 00:19:21;;;;;;;;;;;-6.50;99.90;;;;;;4904663;29;19914;-89
2024/01/10 00:21:47;;;;;;;;;;;-6.50;99.90;;;;;;4936703;29;20016;-89
2024/01/10 00:24:12;;;;;;;;;;;-6.50;99.90;;;;;;4937195;29;19910;-89
2024/01/10 00:26:38;;;;;;;;;;;-6.40;99.90;;;;;;4921714;29;19951;-89
2024/01/10 00:29:03;;;;;;;;;;;-6.50;99.90;;;;;;4905620;29;20285;-89
2024/01/10 00:31:29;;;;;;;;;;;-6.40;99.90;;;;;;4902710;29;20001;-89
2024/01/10 00:33:54;;;;;;;;;;;-6.40;99.90;;;;;;4921411;29;19915;-89
2024/01/10 00:36:20;;;;;;;;;;;-6.40;99.90;;;;;;4904911;29;20360;-89
2024/01/10 00:38:46;;;;;;;;;;;-6.40;99.90;;;;;;4937599;29;20362;-89
2024/01/10 00:41:12;;;;;;;;;;;-6.50;99.90;;;;;;4903677;29;19911;-89
2024/01/10 00:43:38;;;;;;;;;;;-6.50;99.90;;;;;;4937570;29;20075;-89
2024/01/10 00:46:03;;;;;;;;;;;-6.50;99.90;;;;;;4936933;29;20021;-89
2024/01/10 00:48:29;;;;;;;;;;;-6.40;99.90;;;;;;4937184;29;19911;-89
2024/01/10 00:54:23;;;;;;;;;;;-6.40;99.90;;;;;;4939559;29;20419;-89
2024/01/10 00:56:50;;;;;;;;;;;-6.50;99.90;;;;;;4937513;29;19910;-89
2024/01/10 00:59:16;;;;;;;;;;;-6.50;99.90;;;;;;4937945;29;20351;-89
2024/01/10 01:01:41;;;;;;;;;;;-6.50;99.90;;;;;;4936978;29;19993;-89
2024/01/10 01:04:07;;;;;;;;;;;-6.40;99.90;;;;;;4936584;29;19915;-89
2024/01/10 01:06:32;;;;;;;;;;;-6.40;99.90;;;;;;4937201;29;19914;-89
2024/01/10 01:08:58;;;;;;;;;;;-6.40;99.90;;;;;;4936738;29;19957;-89
2024/01/10 01:11:24;;;;;;;;;;;-6.40;99.90;;;;;;4942199;29;19906;-88
2024/01/10 01:13:49;;;;;;;;;;;-6.40;99.90;;;;;;4936950;29;20023;-89
2024/01/10 01:16:15;;;;;;;;;;;-6.40;99.90;;;;;;4902628;29;19970;-89
2024/01/10 01:18:45;;;;;;;;;;;-6.30;99.90;;;;;;4936555;29;19915;-89
2024/01/10 01:21:11;;;;;;;;;;;-6.30;99.90;;;;;;4935803;29;19946;-89
2024/01/10 01:23:36;;;;;;;;;;;-6.30;99.90;;;;;;4936092;29;19907;-89
2024/01/10 01:26:03;;;;;;;;;;;-6.30;99.90;;;;;;4936447;29;19918;-89
2024/01/10 01:28:29;;;;;;;;;;;-6.20;99.90;;;;;;4936246;29;19925;-89
2024/01/10 01:30:55;;;;;;;;;;;-6.20;99.90;;;;;;4937234;29;19928;-89
2024/01/10 01:33:21;;;;;;;;;;;-6.10;99.90;;;;;;4936094;29;20283;-89
2024/01/10 01:35:46;;;;;;;;;;;-6.10;99.90;;;;;;4936483;29;19910;-89
2024/01/10 01:38:12;;;;;;;;;;;-6.00;99.90;;;;;;4935702;29;19918;-89
2024/01/10 01:40:37;;;;;;;;;;;-6.00;99.90;;;;;;4936061;29;20327;-88
2024/01/10 01:43:17;;;;;;;;;;;-6.00;99.90;;;;;;4935838;29;20263;-89
2024/01/10 01:45:43;;;;;;;;;;;-6.00;99.90;;;;;;4933943;29;20319;-89
2024/01/10 01:48:09;;;;;;;;;;;-6.00;99.90;;;;;;4904496;29;19938;-89
2024/01/10 01:50:34;;;;;;;;;;;-5.90;99.90;;;;;;4936240;29;19975;-89
2024/01/10 01:56:28;;;;;;;;;;;-5.80;99.90;;;;;;4937846;29;19975;-89
2024/01/10 01:58:54;;;;;;;;;;;-5.70;99.90;;;;;;4935881;29;19910;-90
2024/01/10 02:01:22;;;;;;;;;;;-5.70;99.90;;;;;;4920618;29;20005;-89
2024/01/10 02:03:48;;;;;;;;;;;-5.70;99.90;;;;;;4936115;29;19906;-89
2024/01/10 02:06:14;;;;;;;;;;;-5.70;99.90;;;;;;4904455;29;20386;-89
2024/01/10 02:08:39;;;;;;;;;;;-5.70;99.90;;;;;;4936741;29;19906;-89
2024/01/10 02:11:08;;;;;;;;;;;-5.70;99.90;;;;;;4905307;29;19911;-89
2024/01/10 02:13:33;;;;;;;;;;;-5.80;99.90;;;;;;4936069;29;19966;-89
2024/01/10 02:15:59;;;;;;;;;;;-5.80;99.90;;;;;;4936517;29;20351;-88
2024/01/10 02:18:25;;;;;;;;;;;-5.80;99.90;;;;;;4933584;28;19915;-89
2024/01/10 02:20:51;;;;;;;;;;;-5.80;99.90;;;;;;4936323;29;19907;-89
2024/01/10 02:23:17;;;;;;;;;;;-5.80;99.90;;;;;;4935254;29;20278;-88
2024/01/10 02:25:43;;;;;;;;;;;-5.80;99.90;;;;;;4935715;29;19918;-89
2024/01/10 02:28:11;;;;;;;;;;;-5.90;99.90;;;;;;4936070;29;19914;-89
2024/01/10 02:30:37;;;;;;;;;;;-5.90;99.90;;;;;;4903904;29;20375;-89
2024/01/10 02:33:03;;;;;;;;;;;-5.90;99.90;;;;;;4935681;29;19997;-89
2024/01/10 02:35:32;;;;;;;;;;;-5.90;99.90;;;;;;4923212;29;19957;-89
2024/01/10 02:37:58;;;;;;;;;;;-6.00;99.90;;;;;;4904836;29;19910;-89
2024/01/10 02:40:23;;;;;;;;;;;-6.00;99.90;;;;;;4926813;29;19913;-89
2024/01/10 02:42:50;;;;;;;;;;;-6.00;99.90;;;;;;4936214;29;20335;-89
2024/01/10 02:48:46;;;;;;;;;;;-6.00;99.90;;;;;;4937411;29;20021;-89
2024/01/10 02:51:11;;;;;;;;;;;-6.00;99.90;;;;;;4935910;29;20271;-89
2024/01/10 02:53:37;;;;;;;;;;;-6.00;99.90;;;;;;4938268;29;19919;-89
2024/01/10 02:56:02;;;;;;;;;;;-6.00;99.90;;;;;;4936859;29;19918;-89
2024/01/10 02:58:29;;;;;;;;;;;-6.00;99.90;;;;;;4925512;29;20001;-89
2024/01/10 03:00:57;;;;;;;;;;;-6.00;99.90;;;;;;4939701;29;19943;-89
2024/01/10 03:03:22;;;;;;;;;;;-6.00;99.90;;;;;;4906011;29;19915;-89
2024/01/10 03:05:48;;;;;;;;;;;-6.00;99.90;;;;;;4939704;29;20354;-89
2024/01/10 03:08:13;;;;;;;;;;;-6.00;99.90;;;;;;4939821;29;20367;-89
2024/01/10 03:10:39;;;;;;;;;;;-5.90;99.90;;;;;;4939490;29;20315;-89
2024/01/10 03:13:04;;;;;;;;;;;-5.90;99.90;;;;;;4939643;29;20025;-89
2024/01/10 03:15:31;;;;;;;;;;;-5.80;99.90;;;;;;4938868;29;20281;-89
2024/01/10 03:17:56;;;;;;;;;;;-5.80;99.90;;;;;;4939016;29;19915;-89
2024/01/10 03:20:22;;;;;;;;;;;-5.80;99.90;;;;;;4938472;29;19911;-89
2024/01/10 03:22:47;;;;;;;;;;;-5.80;99.90;;;;;;4938718;29;20383;-89
2024/01/10 03:25:13;;;;;;;;;;;-5.70;99.90;;;;;;4914359;29;19914;-88
2024/01/10 03:27:38;;;;;;;;;;;-5.60;99.90;;;;;;4938585;29;19965;-88
2024/01/10 03:30:04;;;;;;;;;;;-5.60;99.90;;;;;;4938611;29;20275;-89
2024/01/10 03:32:30;;;;;;;;;;;-5.60;99.90;;;;;;4909211;29;19934;-89
2024/01/10 03:34:55;;;;;;;;;;;-5.60;99.90;;;;;;4938722;29;19926;-89
2024/01/10 03:37:21;;;;;;;;;;;-5.60;99.90;;;;;;4921114;29;20287;-90
2024/01/10 03:39:46;;;;;;;;;;;-5.60;99.90;;;;;;4939150;29;20017;-89
2024/01/10 03:42:12;;;;;;;;;;;-5.60;99.90;;;;;;4938902;29;19918;-89
2024/01/10 03:44:38;;;;;;;;;;;-5.60;99.90;;;;;;4938720;29;19910;-89
2024/01/10 03:47:03;;;;;;;;;;;-5.60;99.90;;;;;;4939175;29;19915;-89
2024/01/10 03:49:29;;;;;;;;;;;-5.60;99.90;;;;;;4939302;29;19965;-89
2024/01/10 03:51:54;;;;;;;;;;;-5.60;99.90;;;;;;4939026;29;19949;-89
2024/01/10 03:54:20;;;;;;;;;;;-5.60;99.90;;;;;;4938203;29;19923;-89
2024/01/10 03:56:45;;;;;;;;;;;-5.60;99.90;;;;;;4942709;28;19934;-88
2024/01/10 03:59:11;;;;;;;;;;;-5.60;99.90;;;;;;4915343;29;19965;-89
2024/01/10 04:01:39;;;;;;;;;;;-5.60;99.90;;;;;;4914998;29;19910;-89
2024/01/10 04:04:04;;;;;;;;;;;-5.60;99.90;;;;;;4931278;29;19911;-89
2024/01/10 04:06:34;;;;;;;;;;;-5.60;99.90;;;;;;4925653;29;19934;-89
2024/01/10 04:09:00;;;;;;;;;;;-5.60;99.90;;;;;;4909091;29;20380;-88
2024/01/10 04:11:26;;;;;;;;;;;-5.60;99.90;;;;;;4936379;29;19910;-89
2024/01/10 04:13:51;;;;;;;;;;;-5.60;99.90;;;;;;4903698;29;20523;-89
2024/01/10 04:16:17;;;;;;;;;;;-5.60;99.90;;;;;;4919767;29;20260;-89
2024/01/10 04:18:43;;;;;;;;;;;-5.60;99.90;;;;;;4914849;29;19954;-88
2024/01/10 04:21:08;;;;;;;;;;;-5.60;99.90;;;;;;4942583;29;19962;-89
2024/01/10 04:23:34;;;;;;;;;;;-5.70;99.90;;;;;;4903699;29;19961;-89
2024/01/10 04:26:01;;;;;;;;;;;-5.70;99.90;;;;;;4938040;29;19917;-89
2024/01/10 04:28:26;;;;;;;;;;;-5.70;99.90;;;;;;4937748;29;19922;-89
2024/01/10 04:30:52;;;;;;;;;;;-5.80;99.90;;;;;;4939172;29;19938;-89
2024/01/10 04:33:18;;;;;;;;;;;-5.80;99.90;;;;;;4938304;29;19918;-89
2024/01/10 04:35:43;;;;;;;;;;;-5.90;99.90;;;;;;4938412;29;19979;-89
2024/01/10 04:38:09;;;;;;;;;;;-5.90;99.90;;;;;;4938442;29;19910;-89
2024/01/10 04:40:34;;;;;;;;;;;-5.90;99.90;;;;;;4908377;29;20663;-89
2024/01/10 04:43:00;;;;;;;;;;;-6.00;99.90;;;;;;4938680;29;20398;-89
2024/01/10 04:45:25;;;;;;;;;;;-6.00;99.90;;;;;;4904524;29;19923;-89
2024/01/10 04:47:51;;;;;;;;;;;-6.00;99.90;;;;;;4939357;29;19910;-89
2024/01/10 04:50:16;;;;;;;;;;;-6.00;99.90;;;;;;4939673;29;19911;-88
2024/01/10 04:52:42;;;;;;;;;;;-6.00;99.90;;;;;;4939011;29;19965;-89
2024/01/10 04:55:08;;;;;;;;;;;-6.00;99.90;;;;;;4938886;29;19918;-89
2024/01/10 04:57:33;;;;;;;;;;;-6.00;99.90;;;;;;4937829;29;19910;-88
2024/01/10 04:59:59;;;;;;;;;;;-5.90;99.90;;;;;;4937117;29;19911;-89
2024/01/10 05:02:24;;;;;;;;;;;-5.90;99.90;;;;;;4937721;29;19954;-88
2024/01/10 05:04:51;;;;;;;;;;;-6.00;99.90;;;;;;4937815;29;19911;-89
2024/01/10 05:07:16;;;;;;;;;;;-5.90;99.90;;;;;;4937266;29;19918;-89
2024/01/10 05:09:42;;;;;;;;;;;-6.00;99.90;;;;;;4938360;29;19911;-89
2024/01/10 05:12:08;;;;;;;;;;;-6.00;99.90;;;;;;4937262;29;19961;-90
2024/01/10 05:14:33;;;;;;;;;;;-6.00;99.90;;;;;;4904858;29;19915;-89
2024/01/10 05:16:59;;;;;;;;;;;-6.00;99.90;;;;;;4937406;29;20347;-89
2024/01/10 05:19:34;;;;;;;;;;;-6.00;99.90;;;;;;4920738;29;20403;-89
2024/01/10 05:22:00;;;;;;;;;;;-6.00;99.90;;;;;;4924647;29;19910;-90
2024/01/10 05:24:25;;;;;;;;;;;-5.90;99.90;;;;;;4907513;29;19970;-89
2024/01/10 05:26:51;;;;;;;;;;;-5.90;99.90;;;;;;4937506;29;19946;-89
2024/01/10 05:29:19;;;;;;;;;;;-5.90;99.90;;;;;;4936400;29;19921;-90
2024/01/10 05:31:45;;;;;;;;;;;-5.90;99.90;;;;;;4937448;29;19917;-89
2024/01/10 05:34:11;;;;;;;;;;;-5.80;99.90;;;;;;4937639;29;19970;-89
2024/01/10 05:36:37;;;;;;;;;;;-5.80;99.90;;;;;;4936969;29;19910;-89
2024/01/10 05:39:02;;;;;;;;;;;-5.70;99.90;;;;;;4943134;29;20390;-90
2024/01/10 05:41:29;;;;;;;;;;;-5.70;99.90;;;;;;4921786;29;19915;-88
2024/01/10 05:43:55;;;;;;;;;;;-5.70;99.90;;;;;;4937543;29;19907;-89
2024/01/10 05:46:20;;;;;;;;;;;-5.70;99.90;;;;;;4937210;29;19918;-89
2024/01/10 05:48:46;;;;;;;;;;;-5.70;99.90;;;;;;4938745;29;20335;-89
2024/01/10 05:51:12;;;;;;;;;;;-5.70;99.90;;;;;;4936829;29;19961;-90
2024/01/10 05:53:37;;;;;;;;;;;-5.70;99.90;;;;;;4937728;29;19914;-89
2024/01/10 05:56:05;;;;;;;;;;;-5.70;99.90;;;;;;4937887;29;19917;-89
2024/01/10 05:58:31;;;;;;;;;;;-5.60;99.90;;;;;;4937146;29;20001;-89
2024/01/10 06:00:56;;;;;;;;;;;-5.60;99.90;;;;;;4906171;29;20380;-89
2024/01/10 06:03:22;;;;;;;;;;;-5.60;99.90;;;;;;4938283;29;20418;-90
2024/01/10 06:05:48;;;;;;;;;;;-5.60;99.90;;;;;;4913192;29;20010;-89
2024/01/10 06:08:14;;;;;;;;;;;-5.60;99.90;;;;;;4933350;29;20346;-89
2024/01/10 06:10:39;;;;;;;;;;;-5.60;99.90;;;;;;4905430;29;19974;-89
2024/01/10 06:13:05;;;;;;;;;;;-5.60;99.90;;;;;;4936622;29;19970;-89
2024/01/10 06:15:30;;;;;;;;;;;-5.70;99.90;;;;;;4920917;29;19911;-89
2024/01/10 06:17:56;;;;;;;;;;;-5.70;99.90;;;;;;4936882;29;20266;-89
2024/01/10 06:20:22;;;;;;;;;;;-5.80;99.90;;;;;;4936225;29;19911;-89
2024/01/10 06:22:47;;;;;;;;;;;-5.70;99.90;;;;;;4936784;29;19918;-89
2024/01/10 06:25:13;;;;;;;;;;;-5.70;99.90;;;;;;4907893;29;19933;-89
2024/01/10 06:27:39;;;;;;;;;;;-5.70;99.90;;;;;;4912723;29;20013;-89
2024/01/10 06:30:07;;;;;;;;;;;-5.70;99.90;;;;;;4936448;29;19950;-90
2024/01/10 06:32:32;;;;;;;;;;;-5.70;99.90;;;;;;4905737;29;20248;-90
2024/01/10 06:35:00;;;;;;;;;;;-5.70;99.90;;;;;;4936319;29;19914;-89
2024/01/10 06:37:25;;;;;;;;;;;-5.70;99.90;;;;;;4937248;29;19922;-90
2024/01/10 06:39:51;;;;;;;;;;;-5.60;99.90;;;;;;4936438;29;19911;-89
2024/01/10 06:42:17;;;;;;;;;;;-5.70;99.90;;;;;;4936777;29;19918;-89
2024/01/10 06:44:42;;;;;;;;;;;-5.70;99.90;;;;;;4937711;29;19918;-90
2024/01/10 06:47:08;;;;;;;;;;;-5.70;99.90;;;;;;4936175;29;20318;-89
2024/01/10 06:49:33;;;;;;;;;;;-5.70;99.90;;;;;;4937195;29;19911;-89
2024/01/10 06:52:00;;;;;;;;;;;-5.70;99.90;;;;;;4936901;29;19917;-89
2024/01/10 06:54:26;;;;;;;;;;;-5.70;99.90;;;;;;4904301;29;19986;-89
2024/01/10 06:56:51;;;;;;;;;;;-5.70;99.90;;;;;;4936151;29;20398;-89
2024/01/10 06:59:17;;;;;;;;;;;-5.70;99.90;;;;;;4927608;29;20031;-89
2024/01/10 07:01:42;;;;;;;;;;;-5.70;99.90;;;;;;4906330;29;19915;-89
2024/01/10 07:04:08;;;;;;;;;;;-5.70;99.90;;;;;;4936089;29;19970;-89
2024/01/10 07:06:33;;;;;;;;;;;-5.70;99.90;;;;;;4902438;29;19911;-89
2024/01/10 07:08:59;;;;;;;;;;;-5.70;99.90;;;;;;4940317;29;20318;-89
2024/01/10 07:11:28;;;;;;;;;;;-5.70;99.90;;;;;;4920159;29;19914;-89
2024/01/10 07:13:53;;;;;;;;;;;-5.70;99.90;;;;;;4926383;29;19915;-89
2024/01/10 07:16:19;;;;;;;;;;;-5.70;99.90;;;;;;4931973;29;19913;-90
2024/01/10 07:18:46;;;;;;;;;;;-5.70;99.90;;;;;;4929075;29;19979;-89
2024/01/10 07:21:11;;;;;;;;;;;-5.80;99.90;;;;;;4928907;29;20450;-85
2024/01/10 07:23:40;;;;;;;;;;;-5.80;99.90;;;;;;4918797;29;19997;-85
2024/01/10 07:26:06;;;;;;;;;;;-5.80;99.90;;;;;;4935320;29;19922;-85
2024/01/10 07:28:32;;;;;;;;;;;-5.80;99.90;;;;;;4901303;29;19918;-85
2024/01/10 07:30:58;;;;;;;;;;;-5.80;99.90;;;;;;4936899;29;19989;-85
2024/01/10 07:33:24;;;;;;;;;;;-5.80;99.90;;;;;;4936157;29;20350;-85
2024/01/10 07:35:49;;;;;;;;;;;-5.90;99.90;;;;;;4917849;29;20006;-86
2024/01/10 07:38:15;;;;;;;;;;;-5.80;99.90;;;;;;4931980;29;19918;-85
2024/01/10 07:40:40;;;;;;;;;;;-5.80;99.90;;;;;;4904138;29;19915;-85
2024/01/10 07:43:06;;;;;;;;;;;-5.80;99.90;;;;;;4934507;29;19914;-85
2024/01/10 07:45:33;;;;;;;;;;;-5.80;99.90;;;;;;4915284;29;19926;-85
2024/01/10 07:47:59;;;;;;;;;;;-5.90;99.90;;;;;;4940084;29;19910;-85
2024/01/10 07:50:27;;;;;;;;;;;-5.80;99.90;;;;;;4903742;29;20402;-85
2024/01/10 07:52:53;;;;;;;;;;;-5.80;99.90;;;;;;4936773;29;19906;-86
2024/01/10 07:55:19;;;;;;;;;;;-5.80;99.90;;;;;;4940810;29;19918;-85
2024/01/10 07:57:45;;;;;;;;;;;-5.70;99.90;;;;;;4903505;29;20358;-85
2024/01/10 08:00:10;;;;;;;;;;;-5.70;99.90;;;;;;4934647;29;19923;-85
2024/01/10 08:02:37;;;;;;;;;;;-5.70;99.90;;;;;;4935627;29;19915;-85
2024/01/10 08:05:08;;;;;;;;;;;-5.60;99.90;;;;;;4907153;29;19914;-85
2024/01/10 08:07:37;;;;;;;;;;;-5.60;99.90;;;;;;4935853;29;20568;-85
2024/01/10 08:10:04;;;;;;;;;;;-5.50;99.90;;;;;;4923130;29;19997;-85
2024/01/10 08:12:30;;;;;;;;;;;-5.50;99.90;;;;;;4932871;29;19914;-86
2024/01/10 08:14:56;;;;;;;;;;;-5.50;99.90;;;;;;4934117;29;19923;-85
2024/01/10 08:17:23;;;;;;;;;;;-5.50;99.90;;;;;;4912185;29;19917;-85
2024/01/10 08:19:49;;;;;;;;;;;-5.40;99.90;;;;;;4910924;29;20289;-85
2024/01/10 08:22:15;;;;;;;;;;;-5.40;99.90;;;;;;4936674;29;19910;-85
2024/01/10 08:24:41;;;;;;;;;;;-5.40;99.90;;;;;;4926222;29;19914;-85
2024/01/10 08:27:07;;;;;;;;;;;-5.30;99.90;;;;;;4903029;29;19998;-86
2024/01/10 08:29:33;;;;;;;;;;;-5.20;99.90;;;;;;4929513;29;20267;-85
2024/01/10 08:31:59;;;;;;;;;;;-5.20;99.90;;;;;;4936215;29;19922;-85
2024/01/10 08:34:24;;;;;;;;;;;-5.20;99.90;;;;;;4918783;29;19965;-86
2024/01/10 08:36:51;;;;;;;;;;;-5.10;99.90;;;;;;4896519;29;19922;-85
2024/01/10 08:39:16;;;;;;;;;;;-5.10;99.90;;;;;;4932256;29;19914;-85
2024/01/10 08:42:10;;;;;;;;;;;-5.10;99.90;;;;;;4906714;29;20323;-85
2024/01/10 08:44:36;;;;;;;;;;;-5.10;99.90;;;;;;4926967;29;20612;-85
2024/01/10 08:47:02;;;;;;;;;;;-5.00;99.90;;;;;;4935028;29;20330;-85
2024/01/10 08:49:27;;;;;;;;;;;-4.90;99.90;;;;;;4918055;29;19965;-84
2024/01/10 08:51:53;;;;;;;;;;;-5.00;99.90;;;;;;4936929;29;19915;-85
2024/01/10 08:54:19;;;;;;;;;;;-4.90;99.90;;;;;;4919448;29;19970;-85
2024/01/10 08:56:48;;;;;;;;;;;-4.80;99.90;;;;;;4917964;29;20348;-85
2024/01/10 08:59:14;;;;;;;;;;;-4.80;99.90;;;;;;4928241;29;19917;-85
2024/01/10 09:01:40;;;;;;;;;;;-4.90;99.90;;;;;;4928431;29;20360;-85
2024/01/10 09:04:05;;;;;;;;;;;-4.90;99.90;;;;;;4928229;29;19918;-85
2024/01/10 09:06:31;;;;;;;;;;;-4.90;99.90;;;;;;4922630;29;19915;-84
2024/01/10 09:08:57;;;;;;;;;;;-4.80;99.90;;;;;;4930406;29;19911;-85
2024/01/10 09:11:24;;;;;;;;;;;-4.70;99.90;;;;;;4923790;29;19917;-85
2024/01/10 09:13:50;;;;;;;;;;;-4.60;99.90;;;;;;4927443;29;19925;-85
2024/01/10 09:16:16;;;;;;;;;;;-4.50;99.90;;;;;;4927562;29;19914;-85
2024/01/10 09:18:58;;;;;;;;;;;-4.50;99.90;;;;;;4938689;29;19969;-85
2024/01/10 09:21:27;;;;;;;;;;;-4.40;99.90;;;;;;4936966;29;19914;-85
2024/01/10 09:23:52;;;;;;;;;;;-4.20;99.90;;;;;;4917036;29;19957;-85
2024/01/10 09:26:18;;;;;;;;;;;-4.20;99.90;;;;;;4898720;29;19975;-85
2024/01/10 09:28:44;;;;;;;;;;;-4.00;99.90;;;;;;4931189;29;19923;-85
2024/01/10 09:34:38;;;;;;;;;;;-3.70;99.90;;;;;;4931196;29;20384;-85
2024/01/10 09:37:23;;;;;;;;;;;-3.40;99.90;;;;;;4919937;29;20025;-85
2024/01/10 09:39:49;;;;;;;;;;;-3.10;99.90;;;;;;4902000;29;19918;-85
2024/01/10 09:42:14;;;;;;;;;;;-3.00;99.90;;;;;;4909061;29;19910;-84
2024/01/10 09:44:41;;;;;;;;;;;-3.10;99.90;;;;;;4935114;29;20442;-85
2024/01/10 09:47:07;;;;;;;;;;;-3.20;99.90;;;;;;4907901;29;19915;-85
2024/01/10 09:49:33;;;;;;;;;;;-3.30;99.90;;;;;;4921266;29;19966;-86
2024/01/10 09:52:02;;;;;;;;;;;-3.40;99.90;;;;;;4936221;29;19946;-85
2024/01/10 09:54:29;;;;;;;;;;;-3.50;99.90;;;;;;4933494;29;19919;-85
2024/01/10 09:56:55;;;;;;;;;;;-3.60;99.90;;;;;;4932606;29;19914;-85
2024/01/10 09:59:21;;;;;;;;;;;-3.70;99.90;;;;;;4938746;29;19910;-84
2024/01/10 10:01:47;;;;;;;;;;;-3.70;99.90;;;;;;4925284;29;20371;-85
2024/01/10 10:04:12;;;;;;;;;;;-3.50;99.90;;;;;;4933598;29;19921;-84
2024/01/10 10:06:38;;;;;;;;;;;-3.50;99.90;;;;;;4918184;29;19918;-85
2024/01/10 10:09:04;;;;;;;;;;;-3.20;99.90;;;;;;4937680;29;19958;-85
2024/01/10 10:11:30;;;;;;;;;;;-3.20;99.90;;;;;;4902464;29;20430;-85
2024/01/10 10:13:56;;;;;;;;;;;-2.90;99.90;;;;;;4933715;29;19919;-85
2024/01/10 10:16:25;;;;;;;;;;;-2.70;99.90;;;;;;4923273;29;19983;-85
2024/01/10 10:18:57;;;;;;;;;;;-2.40;99.90;;;;;;4936078;29;19915;-84
2024/01/10 10:21:24;;;;;;;;;;;-2.10;99.90;;;;;;4902462;29;19921;-85
2024/01/10 10:24:05;;;;;;;;;;;-1.80;99.90;;;;;;4933049;29;20699;-85
2024/01/10 10:26:34;;;;;;;;;;;-1.50;99.90;;;;;;4917762;29;19922;-85
2024/01/10 10:29:00;;;;;;;;;;;-0.90;99.90;;;;;;4933071;29;19970;-86
2024/01/10 10:31:26;;;;;;;;;;;-0.50;99.90;;;;;;4917129;29;20021;-86
2024/01/10 10:33:52;;;;;;;;;;;-0.60;99.90;;;;;;4936206;29;19918;-85
2024/01/10 10:36:18;;;;;;;;;;;-0.90;99.90;;;;;;4934723;29;19915;-85
2024/01/10 10:38:44;;;;;;;;;;;-1.20;99.90;;;;;;4901688;29;19978;-86
2024/01/10 10:41:12;;;;;;;;;;;-0.80;99.90;;;;;;4933439;29;19914;-86
2024/01/10 10:43:38;;;;;;;;;;;-0.60;99.90;;;;;;4906191;29;19911;-86
2024/01/10 10:46:06;;;;;;;;;;;-0.70;99.90;;;;;;4933783;29;19945;-86
2024/01/10 10:48:32;;;;;;;;;;;-1.20;99.90;;;;;;4923840;29;20537;-85
2024/01/10 10:51:02;;;;;;;;;;;-1.40;99.90;;;;;;4940471;29;19914;-86
2024/01/10 10:53:29;;;;;;;;;;;-1.50;99.90;;;;;;4921462;29;19926;-86
2024/01/10 10:55:56;;;;;;;;;;;-1.60;99.90;;;;;;4930866;28;19917;-86
2024/01/10 10:58:22;;;;;;;;;;;-1.60;99.90;;;;;;4939097;29;19922;-85
2024/01/10 11:00:49;;;;;;;;;;;-1.80;99.90;;;;;;4945625;29;19915;-86
2024/01/10 11:03:16;;;;;;;;;;;-2.10;99.90;;;;;;4937929;28;19910;-85
2024/01/10 11:05:41;;;;;;;;;;;-2.20;99.90;;;;;;4903150;29;19911;-86
2024/01/10 11:08:10;;;;;;;;;;;-2.30;99.90;;;;;;4932015;28;19915;-86
2024/01/10 11:10:36;;;;;;;;;;;-2.20;99.90;;;;;;4938933;29;19915;-86
2024/01/10 11:13:21;;;;;;;;;;;-2.10;99.90;;;;;;4932794;29;19962;-86
2024/01/10 11:16:15;;;;;;;;;;;-1.80;99.90;;;;;;4931485;29;19942;-86
2024/01/10 11:18:46;;;;;;;;;;;-1.70;99.90;;;;;;4920827;29;20005;-85
2024/01/10 11:21:31;;;;;;;;;;;-1.50;99.90;;;;;;4916220;29;19911;-85
2024/01/10 11:23:59;;;;;;;;;;;-1.60;99.90;;;;;;4920264;29;19938;-86
2024/01/10 11:26:24;;;;;;;;;;;-2.00;99.90;;;;;;4906920;29;19915;-86
2024/01/10 11:32:22;;;;;;;;;;;-2.20;99.90;;;;;;4937774;29;19921;-86
2024/01/10 11:34:50;;;;;;;;;;;-2.00;99.90;;;;;;4939498;29;20678;-86
2024/01/10 11:37:15;;;;;;;;;;;-2.00;99.90;;;;;;4937342;29;19926;-85
2024/01/10 11:39:42;;;;;;;;;;;-2.10;99.90;;;;;;4914936;29;19921;-85
2024/01/10 11:42:09;;;;;;;;;;;-2.10;99.90;;;;;;4926612;29;19969;-85
2024/01/10 11:44:46;;;;;;;;;;;-2.20;99.90;;;;;;4923900;29;19950;-85
2024/01/10 11:47:13;;;;;;;;;;;-2.20;99.90;;;;;;4935757;29;19925;-86
2024/01/10 11:49:38;;;;;;;;;;;-2.00;99.90;;;;;;4922614;29;20252;-86
2024/01/10 11:52:05;;;;;;;;;;;-1.90;99.90;;;;;;4919330;29;19922;-86
2024/01/10 11:54:37;;;;;;;;;;;-1.90;99.90;;;;;;4935101;29;19922;-85
2024/01/10 11:57:14;;;;;;;;;;;-2.10;99.90;;;;;;4932557;29;19917;-86
2024/01/10 11:59:41;;;;;;;;;;;-2.30;99.90;;;;;;4922294;29;20389;-85
2024/01/10 12:02:08;;;;;;;;;;;-2.30;99.90;;;;;;4935550;29;19969;-86
2024/01/10 12:04:34;;;;;;;;;;;-2.40;99.90;;;;;;4935589;29;19917;-85
2024/01/10 12:07:02;;;;;;;;;;;-2.50;99.90;;;;;;4913077;29;19911;-85
2024/01/10 12:09:27;;;;;;;;;;;-2.60;99.90;;;;;;4936334;29;19910;-85
2024/01/10 12:11:53;;;;;;;;;;;-2.70;99.90;;;;;;4903920;29;19958;-86
2024/01/10 12:14:20;;;;;;;;;;;-2.70;99.90;;;;;;4920202;29;20022;-85
2024/01/10 12:16:46;;;;;;;;;;;-2.80;99.90;;;;;;4935816;29;19919;-85
2024/01/10 12:19:30;;;;;;;;;;;-2.70;99.90;;;;;;4903520;29;19914;-85
2024/01/10 12:21:56;;;;;;;;;;;-2.70;99.90;;;;;;4919215;29;19970;-85
2024/01/10 12:24:22;;;;;;;;;;;-2.60;99.90;;;;;;4926328;29;19911;-85
2024/01/10 12:26:49;;;;;;;;;;;-2.60;99.90;;;;;;4934769;29;20418;-85
2024/01/10 12:29:48;;;;;;;;;;;-2.60;99.90;;;;;;4939462;29;19918;-85
2024/01/10 12:32:16;;;;;;;;;;;-2.60;99.90;;;;;;4922118;29;19914;-86
2024/01/10 12:34:42;;;;;;;;;;;-2.60;99.90;;;;;;4934839;29;20378;-85
2024/01/10 12:37:10;;;;;;;;;;;-2.70;99.90;;;;;;4934261;29;19974;-85
2024/01/10 12:39:36;;;;;;;;;;;-2.60;99.90;;;;;;4934060;29;19915;-85
2024/01/10 12:42:02;;;;;;;;;;;-2.70;99.90;;;;;;4930418;29;19960;-85
2024/01/10 12:44:29;;;;;;;;;;;-2.60;99.90;;;;;;4936539;29;20615;-85
2024/01/10 12:46:57;;;;;;;;;;;-2.60;99.90;;;;;;4919197;29;20009;-85
2024/01/10 12:49:22;;;;;;;;;;;-2.50;99.90;;;;;;4933866;29;19914;-86
2024/01/10 12:51:48;;;;;;;;;;;-2.50;99.90;;;;;;4904190;29;19911;-85
2024/01/10 12:54:14;;;;;;;;;;;-2.50;99.90;;;;;;4935312;29;20009;-85
2024/01/10 12:56:40;;;;;;;;;;;-2.50;99.90;;;;;;4903273;29;20405;-86
2024/01/10 12:59:06;;;;;;;;;;;-2.50;99.90;;;;;;4934738;29;19958;-85
2024/01/10 13:01:31;;;;;;;;;;;-2.50;99.90;;;;;;4935079;29;20770;-85
2024/01/10 13:03:57;;;;;;;;;;;-2.40;99.90;;;;;;4933784;28;20361;-86
2024/01/10 13:06:24;;;;;;;;;;;-2.40;99.90;;;;;;4907467;29;19969;-85
2024/01/10 13:08:49;;;;;;;;;;;-2.40;99.90;;;;;;4929324;29;19923;-85
2024/01/10 13:11:15;;;;;;;;;;;-2.40;99.90;;;;;;4932472;29;19994;-85
2024/01/10 13:13:42;;;;;;;;;;;-2.30;99.90;;;;;;4921573;29;19919;-85
2024/01/10 13:16:10;;;;;;;;;;;-2.30;99.90;;;;;;4942969;29;19941;-85
2024/01/10 13:18:37;;;;;;;;;;;-2.40;99.90;;;;;;4926166;29;20029;-85
2024/01/10 13:21:02;;;;;;;;;;;-2.40;99.90;;;;;;4922908;29;19914;-86
2024/01/10 13:23:28;;;;;;;;;;;-2.40;99.90;;;;;;4928591;29;19911;-86
2024/01/10 13:25:53;;;;;;;;;;;-2.40;99.90;;;;;;4932510;29;20010;-85
2024/01/10 13:28:19;;;;;;;;;;;-2.50;99.90;;;;;;4932168;29;19910;-86
2024/01/10 13:30:45;;;;;;;;;;;-2.50;99.90;;;;;;4932201;29;19922;-85
2024/01/10 13:33:10;;;;;;;;;;;-2.50;99.90;;;;;;4930878;29;19906;-85
2024/01/10 13:35:36;;;;;;;;;;;-2.50;99.90;;;;;;4930031;29;19910;-85
2024/01/10 13:38:03;;;;;;;;;;;-2.50;99.90;;;;;;4924541;29;19981;-85
2024/01/10 13:40:33;;;;;;;;;;;-2.50;99.90;;;;;;4932101;28;20371;-85
2024/01/10 13:43:02;;;;;;;;;;;-2.50;99.90;;;;;;4933052;29;19930;-85
2024/01/10 13:45:28;;;;;;;;;;;-2.50;99.90;;;;;;4915824;29;19919;-85
2024/01/10 13:47:53;;;;;;;;;;;-2.50;99.90;;;;;;4925742;29;20018;-85
2024/01/10 13:50:19;;;;;;;;;;;-2.50;99.90;;;;;;4936397;28;19918;-85
2024/01/10 13:52:45;;;;;;;;;;;-2.50;99.90;;;;;;4922320;29;19915;-85
2024/01/10 13:55:16;;;;;;;;;;;-2.50;99.90;;;;;;4937698;29;19948;-86
2024/01/10 13:57:41;;;;;;;;;;;-2.50;99.90;;;;;;4906674;29;19927;-86
2024/01/10 14:00:07;;;;;;;;;;;-2.50;99.90;;;;;;4918545;29;20314;-86
2024/01/10 14:02:39;;;;;;;;;;;-2.60;99.90;;;;;;4933082;29;19981;-85
2024/01/10 14:05:05;;;;;;;;;;;-2.60;99.90;;;;;;4901303;29;20001;-85
2024/01/10 14:07:32;;;;;;;;;;;-2.60;99.90;;;;;;4933133;29;19915;-85
2024/01/10 14:09:58;;;;;;;;;;;-2.50;99.90;;;;;;4901455;29;19915;-85
2024/01/10 14:12:23;;;;;;;;;;;-2.60;99.90;;;;;;4933452;29;19922;-85
2024/01/10 14:14:49;;;;;;;;;;;-2.60;99.90;;;;;;4923449;29;19929;-85
2024/01/10 14:17:14;;;;;;;;;;;-2.60;99.90;;;;;;4933306;29;19962;-85
2024/01/10 14:19:40;;;;;;;;;;;-2.60;99.90;;;;;;4921020;29;19935;-86
2024/01/10 14:22:06;;;;;;;;;;;-2.70;99.90;;;;;;4935989;29;20331;-85
2024/01/10 14:24:32;;;;;;;;;;;-2.70;99.90;;;;;;4934229;29;19918;-85
2024/01/10 14:26:58;;;;;;;;;;;-2.70;99.90;;;;;;4921650;29;19919;-85
2024/01/10 14:29:24;;;;;;;;;;;-2.70;99.90;;;;;;4922394;29;19919;-86
2024/01/10 14:31:49;;;;;;;;;;;-2.80;99.90;;;;;;4904984;29;20428;-85